To NAV CANADA Home Page Login to a new session Search on AWWS site Feedback and Comments Disclaimer Vers la page française équivalente Tips FAQ What's new on the site To the Forecasts and Observations / NOTAM section To "File a Flight Plan" website Publications and other links Update of the User's profile FIC Telephone Numbers My Weather Data Folder Route Weather Data Regional Weather Data Local Weather Data To the Forecasts and Observations / NOTAM section
Request Generated 02/28/2015 at 17:23:56 UTC . Weather information available at that time is displayed.

METAR/TAF

LYNN LAKE/MB    (show WxCam)

SPECI CYYL 281723Z AUTO 29013KT 3SM HZ OVC035 M13/M16 A2981 RMK
SLP128=
METAR CYYL 281700Z AUTO 28011KT 3SM -SN BKN039 OVC049 M13/M16 A2982
RMK SLP131=
SPECI CYYL 281659Z AUTO 28012KT 3SM -SN BKN039 OVC049 M13/M16 A2981
RMK SLP130=
SPECI CYYL 281655Z AUTO 28011KT 2 1/4SM -SN BKN039 OVC049 M13/M16
A2981 RMK SLP130=
SPECI CYYL 281653Z AUTO 29008KT 2SM -SN FEW030 BKN039 OVC046 M13/M16
A2981 RMK SLP130=
SPECI CYYL 281648Z AUTO 28009KT 2 1/2SM -SN FEW030 BKN038 OVC048
M13/M16 A2981 RMK SLP130=
SPECI CYYL 281639Z AUTO 29008KT 5SM -SN OVC045 M13/M16 A2982 RMK
SLP131=
SPECI CYYL 281634Z AUTO 29009G16KT 6SM -SN OVC045 M14/M16 A2982 RMK
SLP131=
SPECI CYYL 281609Z AUTO 27007KT 3SM -SN BKN039 OVC046 M14/M16 A2982
RMK SLP132=
SPECI CYYL 281603Z AUTO 28008KT 2 1/4SM -SN BKN039 OVC045 M14/M17
A2982 RMK SLP133=
METAR CYYL 281600Z AUTO 28010KT 2SM -SN BKN039 OVC045 M14/M17 A2982
RMK SLP133=
SPECI CYYL 281552Z AUTO 26010KT 2SM -SN OVC039 M15/M17 A2982 RMK
SLP132=
SPECI CYYL 281549Z AUTO 28007KT 2 1/4SM -SN OVC039 M15/M17 A2982 RMK
SLP132=
SPECI CYYL 281532Z AUTO 26009G15KT 5SM -SN FEW041 BKN050 BKN055
OVC068 M15/M17 A2981 RMK SLP130=
METAR CYYL 281500Z AUTO 26010KT 7SM -SN SCT045 M15/M17 A2982 RMK
SLP133=

TAF AMD CYYL 281608Z 2816/0101 28008KT P6SM SCT020 OVC050 TEMPO
2816/2818 2SM -SN BKN020 OVC050
FM281800 30012G22KT P6SM SCT020 OVC050 TEMPO 2818/2821 3SM -SN
OVC020
FM282100 33012G22KT P6SM SCT030 TEMPO 2821/0101 5SM -SN BKN020
RMK FCST BASED ON AUTO OBS. NXT FCST BY 281900Z=
Your time UTC time
Weather data provided by Environment Canada and NAV CANADA